Map

Track Data

SID SEASON NUMBER BASIN SUBBASIN NAME ISO_TIME NATURE LAT LON WMO_WIND WMO_PRES WMO_AGENCY TRACK_TYPE DIST2LAND LANDFALL IFLAG USA_AGENCY USA_ATCF_ID USA_LAT USA_LON USA_RECORD USA_STATUS USA_WIND USA_PRES USA_SSHS USA_R34_NE USA_R34_SE USA_R34_SW USA_R34_NW USA_R50_NE USA_R50_SE USA_R50_SW USA_R50_NW USA_R64_NE USA_R64_SE USA_R64_SW USA_R64_NW USA_POCI USA_ROCI USA_RMW USA_EYE TOKYO_LAT TOKYO_LON TOKYO_GRADE TOKYO_WIND TOKYO_PRES TOKYO_R50_DIR TOKYO_R50_LONG TOKYO_R50_SHORT TOKYO_R30_DIR TOKYO_R30_LONG TOKYO_R30_SHORT TOKYO_LAND CMA_LAT CMA_LON CMA_CAT CMA_WIND CMA_PRES HKO_LAT HKO_LON HKO_CAT HKO_WIND HKO_PRES NEWDELHI_LAT NEWDELHI_LON NEWDELHI_GRADE NEWDELHI_WIND NEWDELHI_PRES NEWDELHI_CI NEWDELHI_DP NEWDELHI_POCI REUNION_LAT REUNION_LON REUNION_TYPE REUNION_WIND REUNION_PRES REUNION_TNUM REUNION_CI REUNION_RMW REUNION_R34_NE REUNION_R34_SE REUNION_R34_SW REUNION_R34_NW REUNION_R50_NE REUNION_R50_SE REUNION_R50_SW REUNION_R50_NW REUNION_R64_NE REUNION_R64_SE REUNION_R64_SW REUNION_R64_NW BOM_LAT BOM_LON BOM_TYPE BOM_WIND BOM_PRES BOM_TNUM BOM_CI BOM_RMW BOM_R34_NE BOM_R34_SE BOM_R34_SW BOM_R34_NW BOM_R50_NE BOM_R50_SE BOM_R50_SW BOM_R50_NW BOM_R64_NE BOM_R64_SE BOM_R64_SW BOM_R64_NW BOM_ROCI BOM_POCI BOM_EYE BOM_POS_METHOD BOM_PRES_METHOD NADI_LAT NADI_LON NADI_CAT NADI_WIND NADI_PRES WELLINGTON_LAT WELLINGTON_LON WELLINGTON_WIND WELLINGTON_PRES DS824_LAT DS824_LON DS824_STAGE DS824_WIND DS824_PRES TD9636_LAT TD9636_LON TD9636_STAGE TD9636_WIND TD9636_PRES TD9635_LAT TD9635_LON TD9635_WIND TD9635_PRES TD9635_ROCI NEUMANN_LAT NEUMANN_LON NEUMANN_CLASS NEUMANN_WIND NEUMANN_PRES MLC_LAT MLC_LON MLC_CLASS MLC_WIND MLC_PRES USA_GUST BOM_GUST BOM_GUST_PER REUNION_GUST REUNION_GUST_PER USA_SEAHGT USA_SEARAD_NE USA_SEARAD_SE USA_SEARAD_SW USA_SEARAD_NW STORM_SPEED STORM_DIR
1914051S16160 1914 5 SP MM NOT_NAMED 1914-02-19 23:00:00 NR -16.0000 160.300 main 604 604 __________O___ -1 -16.0000 160.300 7 15 211
1914051S16160 1914 5 SP MM NOT_NAMED 1914-02-20 00:00:00 NR -16.2198 160.163 main 608 590 __________P___ -1 -16.2198 160.163 7 15 211
1914051S16160 1914 5 SP EA NOT_NAMED 1914-02-20 03:00:00 NR -16.8810 159.754 main 583 573 __________P___ -1 -16.8810 159.754 7 16 210
1914051S16160 1914 5 SP EA NOT_NAMED 1914-02-20 06:00:00 NR -17.5501 159.349 main 579 571 __________P___ -1 -17.5501 159.349 7 16 209
1914051S16160 1914 5 SP EA NOT_NAMED 1914-02-20 09:00:00 NR -18.2333 158.955 main 575 575 __________P___ -1 -18.2333 158.955 7 16 208
1914051S16160 1914 5 SP EA NOT_NAMED 1914-02-20 11:00:00 NR -18.7000 158.700 main 583 580 __________O___ -1 -18.7000 158.700 7 16 207
1914051S16160 1914 5 SP EA NOT_NAMED 1914-02-20 12:00:00 NR -18.9373 158.576 main 586 583 __________P___ -1 -18.9373 158.576 7 16 205
1914051S16160 1914 5 SP EA NOT_NAMED 1914-02-20 15:00:00 NR -19.6615 158.228 main 609 608 __________P___ -1 -19.6615 158.228 7 16 202
1914051S16160 1914 5 SP EA NOT_NAMED 1914-02-20 18:00:00 NR -20.3941 157.944 main 635 618 __________P___ -1 -20.3941 157.944 7 15 197
1914051S16160 1914 5 SP EA NOT_NAMED 1914-02-20 21:00:00 NR -21.1227 157.755 main 618 574 __________P___ -1 -21.1227 157.755 7 15 191
1914051S16160 1914 5 SP EA NOT_NAMED 1914-02-20 23:00:00 NR -21.6000 157.700 main 574 560 __________O___ -1 -21.6000 157.700 7 14 184
1914051S16160 1914 5 SP EA NOT_NAMED 1914-02-21 00:00:00 NR -21.8328 157.698 main 560 525 __________P___ -1 -21.8328 157.698 7 14 175
1914051S16160 1914 5 SP EA NOT_NAMED 1914-02-21 03:00:00 NR -22.5210 157.786 main 525 503 __________P___ -1 -22.5210 157.786 7 14 169
1914051S16160 1914 5 SP EA NOT_NAMED 1914-02-21 06:00:00 NR -23.1961 157.978 main 508 499 __________P___ -1 -23.1961 157.978 7 14 163
1914051S16160 1914 5 SP EA NOT_NAMED 1914-02-21 09:00:00 NR -23.8609 158.226 main 500 500 __________P___ -1 -23.8609 158.226 7 14 161
1914051S16160 1914 5 SP EA NOT_NAMED 1914-02-21 11:00:00 NR -24.3000 158.400 main 510 507 __________O___ -1 -24.3000 158.400 7 14 163
1914051S16160 1914 5 SP EA NOT_NAMED 1914-02-21 12:00:00 NR -24.5357 158.453 main 517 513 __________P___ -1 -24.5357 158.453 7 15 168
1914051S16160 1914 5 SP EA NOT_NAMED 1914-02-21 15:00:00 NR -25.2440 158.615 main 523 523 __________P___ -1 -25.2440 158.615 7 14 167
1914051S16160 1914 5 SP EA NOT_NAMED 1914-02-21 18:00:00 NR -25.9253 158.810 main 550 550 __________P___ -1 -25.9253 158.810 7 14 162
1914051S16160 1914 5 SP EA NOT_NAMED 1914-02-21 21:00:00 NR -26.5426 159.071 main 574 567 __________P___ -1 -26.5426 159.071 7 13 156
1914051S16160 1914 5 SP EA NOT_NAMED 1914-02-21 23:00:00 NR -26.9000 159.300 main 579 576 __________O___ -1 -26.9000 159.300 7 12 148
1914051S16160 1914 5 SP EA NOT_NAMED 1914-02-22 00:00:00 NR -27.0642 159.432 main 583 583 __________P___ -1 -27.0642 159.432 7 12 138
1914051S16160 1914 5 SP EA NOT_NAMED 1914-02-22 03:00:00 NR -27.4901 159.897 main 623 623 __________P___ -1 -27.4901 159.897 7 12 130
1914051S16160 1914 5 SP MM NOT_NAMED 1914-02-22 06:00:00 NR -27.8235 160.449 main 668 668 __________P___ -1 -27.8235 160.449 7 12 119
1914051S16160 1914 5 SP MM NOT_NAMED 1914-02-22 09:00:00 NR -28.0741 161.065 main 734 734 __________P___ -1 -28.0741 161.065 7 12 112
1914051S16160 1914 5 SP MM NOT_NAMED 1914-02-22 11:00:00 NR -28.2000 161.500 main 772 772 __________O___ -1 -28.2000 161.500 7 12 107
1914051S16160 1914 5 SP MM NOT_NAMED 1914-02-22 12:00:00 NR -28.2518 161.723 main 791 786 __________P___ -1 -28.2518 161.723 7 12 102
1914051S16160 1914 5 SP MM NOT_NAMED 1914-02-22 15:00:00 NR -28.3687 162.407 main 790 757 __________P___ -1 -28.3687 162.407 7 12 99
1914051S16160 1914 5 SP MM NOT_NAMED 1914-02-22 18:00:00 NR -28.4400 163.109 main 757 740 __________P___ -1 -28.4400 163.109 7 12 95
1914051S16160 1914 5 SP MM NOT_NAMED 1914-02-22 21:00:00 NR -28.4814 163.822 main 740 722 __________P___ -1 -28.4814 163.822 7 13 93
1914051S16160 1914 5 SP MM NOT_NAMED 1914-02-22 23:00:00 NR -28.5000 164.300 main 722 __________O___ -1 -28.5000 164.300 7 13 93

Digital Typhoon Data and Search

About IBTrACS Database

This database is a web-friendly format of International Best Track Archive for Climate Stewardship (IBTrACS), a global best track data archive curated by NOAA dating back to 1842.

Updated: 2021-12-08